createdAt,value
2022-10-12T00:00:59.657Z,98206.41
2022-10-12T00:03:26.210Z,98205.25
2022-10-12T00:06:01.211Z,98203.56
2022-10-12T00:08:27.843Z,98208.53
2022-10-12T00:10:54.439Z,98204.94
2022-10-12T00:13:22.396Z,98206.00
2022-10-12T00:15:48.964Z,98200.72
2022-10-12T00:18:15.573Z,98201.56
2022-10-12T00:20:42.142Z,98205.97
2022-10-12T00:23:08.690Z,98208.19
2022-10-12T00:25:36.447Z,98213.38
2022-10-12T00:28:03.041Z,98213.38
2022-10-12T00:30:31.091Z,98206.44
2022-10-12T00:32:57.717Z,98207.53
2022-10-12T00:35:24.777Z,98204.50
2022-10-12T00:37:53.938Z,98203.66
2022-10-12T00:40:20.627Z,98204.72
2022-10-12T00:42:47.168Z,98205.56
2022-10-12T00:45:13.809Z,98198.97
2022-10-12T00:47:48.871Z,98199.81
2022-10-12T00:50:21.081Z,98199.81
2022-10-12T00:53:00.721Z,98194.34
2022-10-12T00:55:30.386Z,98199.56
2022-10-12T00:57:57.201Z,98198.72
2022-10-12T01:00:23.926Z,98196.47
2022-10-12T01:02:53.626Z,98195.38
2022-10-12T01:05:20.869Z,98191.47
2022-10-12T01:07:47.430Z,98193.66
2022-10-12T01:10:14.612Z,98182.91
2022-10-12T01:12:43.535Z,98189.53
2022-10-12T01:15:11.727Z,98180.09
2022-10-12T01:17:45.875Z,98184.25
2022-10-12T01:20:34.023Z,98181.25
2022-10-12T01:23:20.835Z,98183.75
2022-10-12T01:26:08.038Z,98181.25
2022-10-12T01:28:45.562Z,98183.44
2022-10-12T01:31:20.443Z,98179.00
2022-10-12T01:33:53.724Z,98180.38
2022-10-12T01:36:31.618Z,98177.03
2022-10-12T01:39:03.957Z,98178.13
2022-10-12T01:41:36.106Z,98180.09
2022-10-12T01:44:02.723Z,98179.53
2022-10-12T01:46:52.098Z,98183.63
2022-10-12T01:49:22.859Z,98182.47
2022-10-12T01:52:16.034Z,98178.44
2022-10-12T01:54:53.716Z,98177.63
2022-10-12T01:57:28.696Z,98176.75
2022-10-12T02:00:02.690Z,98185.25
2022-10-12T02:02:38.930Z,98174.72
2022-10-12T02:05:12.521Z,98175.31
2022-10-12T02:07:42.620Z,98174.44
2022-10-12T02:10:14.664Z,98173.59
2022-10-12T02:12:43.909Z,98177.22
2022-10-12T02:15:12.920Z,98177.50
2022-10-12T02:17:44.369Z,98184.91
2022-10-12T02:20:15.065Z,98179.66
2022-10-12T02:22:44.879Z,98174.63
2022-10-12T02:25:16.857Z,98172.41
2022-10-12T02:27:49.007Z,98175.75
2022-10-12T02:30:19.236Z,98170.25
2022-10-12T02:32:54.699Z,98164.97
2022-10-12T02:35:26.480Z,98161.94
2022-10-12T02:37:56.516Z,98149.25
2022-10-12T02:40:30.239Z,98155.84
2022-10-12T02:43:11.150Z,98145.94
2022-10-12T02:45:40.936Z,98143.75
2022-10-12T02:48:11.295Z,98146.53
2022-10-12T02:50:38.229Z,98146.06
2022-10-12T02:53:05.254Z,98148.22
2022-10-12T02:55:31.984Z,98157.31
2022-10-12T02:57:58.565Z,98149.56
2022-10-12T03:00:25.167Z,98151.25
2022-10-12T03:02:51.744Z,98149.56
2022-10-12T03:05:19.643Z,98150.44
2022-10-12T03:07:46.180Z,98158.66
2022-10-12T03:10:12.732Z,98148.97
2022-10-12T03:12:39.250Z,98140.94
2022-10-12T03:15:06.617Z,98142.59
2022-10-12T03:17:33.153Z,98144.22
2022-10-12T03:19:59.681Z,98148.34
2022-10-12T03:22:27.573Z,98143.41
2022-10-12T03:24:54.108Z,98142.06
2022-10-12T03:27:20.658Z,98145.41
2022-10-12T03:29:47.179Z,98148.75
2022-10-12T03:32:13.751Z,98155.38
2022-10-12T03:34:40.247Z,98152.63
2022-10-12T03:37:06.822Z,98148.44
2022-10-12T03:39:34.709Z,98154.81
2022-10-12T03:42:01.360Z,98156.66
2022-10-12T03:44:27.879Z,98162.50
2022-10-12T03:46:54.456Z,98160.91
2022-10-12T03:49:20.983Z,98159.16
2022-10-12T03:51:47.608Z,98151.41
2022-10-12T03:54:14.313Z,98156.69
2022-10-12T03:56:42.263Z,98161.94
2022-10-12T03:59:08.904Z,98164.75
2022-10-12T04:01:35.506Z,98162.84
2022-10-12T04:04:02.077Z,98171.94
2022-10-12T04:06:29.019Z,98172.97
2022-10-12T04:08:55.554Z,98168.72
2022-10-12T04:11:22.133Z,98164.53
2022-10-12T04:13:49.991Z,98156.19
2022-10-12T04:16:16.660Z,98162.53
2022-10-12T04:18:43.158Z,98156.19
2022-10-12T04:21:13.106Z,98155.06
2022-10-12T04:23:39.747Z,98159.63
2022-10-12T04:26:06.808Z,98156.34
2022-10-12T04:28:33.750Z,98153.84
2022-10-12T04:31:01.649Z,98155.28
2022-10-12T04:33:28.194Z,98154.81
2022-10-12T04:35:54.708Z,98158.41
2022-10-12T04:38:21.237Z,98158.97
2022-10-12T04:40:48.392Z,98152.59
2022-10-12T04:43:15.321Z,98154.56
2022-10-12T04:45:41.940Z,98154.81
2022-10-12T04:48:09.937Z,98161.25
2022-10-12T04:50:36.646Z,98158.28
2022-10-12T04:53:03.196Z,98167.22
2022-10-12T04:55:29.695Z,98166.09
2022-10-12T04:57:56.218Z,98164.38
2022-10-12T05:00:22.714Z,98173.72
2022-10-12T05:02:49.290Z,98168.53
2022-10-12T05:05:17.275Z,98172.13
2022-10-12T05:07:43.833Z,98175.44
2022-10-12T05:10:10.463Z,98179.28
2022-10-12T05:12:37.305Z,98178.56
2022-10-12T05:15:04.723Z,98175.81
2022-10-12T05:17:31.278Z,98177.22
2022-10-12T05:19:57.822Z,98173.88
2022-10-12T05:22:25.789Z,98169.97
2022-10-12T05:24:53.905Z,98176.03
2022-10-12T05:27:20.790Z,98187.13
2022-10-12T05:29:47.339Z,98188.00
2022-10-12T05:32:13.928Z,98186.63
2022-10-12T05:34:40.483Z,98184.44
2022-10-12T05:37:07.024Z,98185.75
2022-10-12T05:39:34.954Z,98178.84
2022-10-12T05:42:01.519Z,98186.53
2022-10-12T05:44:28.098Z,98190.69
2022-10-12T05:46:54.666Z,98188.31
2022-10-12T05:49:21.969Z,98183.88
2022-10-12T05:51:48.509Z,98185.50
2022-10-12T05:54:15.064Z,98188.81
2022-10-12T05:56:42.995Z,98185.41
2022-10-12T05:59:10.617Z,98189.06
2022-10-12T06:01:37.234Z,98192.38
2022-10-12T06:04:04.150Z,98193.13
2022-10-12T06:06:30.769Z,98191.47
2022-10-12T06:08:57.320Z,98195.84
2022-10-12T06:11:23.873Z,98203.56
2022-10-12T06:13:51.798Z,98201.06
2022-10-12T06:16:18.336Z,98192.28
2022-10-12T06:18:44.896Z,98190.50
2022-10-12T06:23:58.102Z,98192.09
2022-10-12T06:26:24.759Z,98195.69
2022-10-12T06:28:52.764Z,98194.53
2022-10-12T06:31:19.503Z,98195.91
2022-10-12T06:33:46.071Z,98201.81
2022-10-12T06:36:12.596Z,98197.28
2022-10-12T06:38:39.139Z,98205.47
2022-10-12T06:41:05.998Z,98202.69
2022-10-12T06:43:32.539Z,98204.34
2022-10-12T06:46:01.663Z,98209.75
2022-10-12T06:48:28.427Z,98205.63
2022-10-12T06:50:55.116Z,98202.00
2022-10-12T06:53:21.712Z,98200.81
2022-10-12T06:55:48.309Z,98197.94
2022-10-12T06:58:14.854Z,98206.31
2022-10-12T07:00:41.434Z,98210.72
2022-10-12T07:03:12.144Z,98215.81
2022-10-12T07:05:38.753Z,98216.50
2022-10-12T07:08:05.286Z,98213.19
2022-10-12T07:10:31.839Z,98217.22
2022-10-12T07:12:58.372Z,98219.56
2022-10-12T07:15:25.007Z,98214.19
2022-10-12T07:17:51.534Z,98220.78
2022-10-12T07:20:19.450Z,98217.44
2022-10-12T07:22:45.967Z,98221.38
2022-10-12T07:25:12.514Z,98224.88
2022-10-12T07:27:39.392Z,98225.03
2022-10-12T07:30:07.398Z,98222.03
2022-10-12T07:32:33.938Z,98223.78
2022-10-12T07:35:00.459Z,98220.13
2022-10-12T07:37:28.386Z,98227.75
2022-10-12T07:39:54.927Z,98218.53
2022-10-12T07:42:21.448Z,98227.38
2022-10-12T07:44:47.994Z,98227.59
2022-10-12T07:47:14.653Z,98224.91
2022-10-12T07:49:41.253Z,98225.75
2022-10-12T07:52:07.784Z,98225.19
2022-10-12T07:54:35.722Z,98227.69
2022-10-12T07:57:02.285Z,98231.72
2022-10-12T07:59:28.977Z,98220.63
2022-10-12T08:01:55.603Z,98229.16
2022-10-12T08:04:22.223Z,98229.69
2022-10-12T08:06:48.772Z,98224.22
2022-10-12T08:09:15.335Z,98228.88
2022-10-12T08:11:43.212Z,98225.31
2022-10-12T08:14:13.588Z,98224.06
2022-10-12T08:16:41.783Z,98217.56
2022-10-12T08:19:08.344Z,98217.50
2022-10-12T08:21:34.896Z,98216.09
2022-10-12T08:24:01.530Z,98214.63
2022-10-12T08:26:28.087Z,98212.34
2022-10-12T08:28:56.180Z,98214.50
2022-10-12T08:31:22.782Z,98213.66
2022-10-12T08:33:49.316Z,98210.56
2022-10-12T08:36:16.094Z,98207.22
2022-10-12T08:38:42.661Z,98205.84
2022-10-12T08:41:23.898Z,98205.09
2022-10-12T08:44:28.443Z,98206.47
2022-10-12T08:46:56.620Z,98215.41
2022-10-12T08:49:26.179Z,98208.56
2022-10-12T08:51:55.143Z,98208.56
2022-10-12T08:54:24.836Z,98216.34
2022-10-12T08:56:53.369Z,98207.75
2022-10-12T08:59:20.097Z,98212.06
2022-10-12T09:02:01.877Z,98203.63
2022-10-12T09:04:45.214Z,98204.53
2022-10-12T09:07:17.984Z,98213.56
2022-10-12T09:09:57.611Z,98202.00
2022-10-12T09:12:38.079Z,98207.31
2022-10-12T09:15:11.963Z,98211.56
2022-10-12T09:17:44.387Z,98207.31
2022-10-12T09:20:17.676Z,98207.25
2022-10-12T09:22:47.832Z,98213.97
2022-10-12T09:25:16.439Z,98206.84
2022-10-12T09:27:45.480Z,98207.59
2022-10-12T09:30:14.497Z,98204.88
2022-10-12T09:32:59.026Z,98202.22
2022-10-12T09:35:25.682Z,98206.41
2022-10-12T09:37:53.624Z,98208.69
2022-10-12T09:40:22.946Z,98201.97
2022-10-12T09:42:50.838Z,98206.53
2022-10-12T09:45:19.736Z,98198.41
2022-10-12T09:48:13.562Z,98203.97
2022-10-12T09:50:42.178Z,98203.59
2022-10-12T09:53:15.013Z,98198.56
2022-10-12T09:55:52.951Z,98205.25
2022-10-12T09:58:21.400Z,98198.88
2022-10-12T10:01:15.776Z,98201.56
2022-10-12T10:03:43.717Z,98199.31
2022-10-12T10:06:10.420Z,98200.22
2022-10-12T10:08:42.458Z,98204.06
2022-10-12T10:11:15.139Z,98204.19
2022-10-12T10:13:48.060Z,98190.53
2022-10-12T10:16:14.878Z,98194.31
2022-10-12T10:18:45.011Z,98198.00
2022-10-12T10:21:13.719Z,98196.53
2022-10-12T10:23:44.564Z,98196.97
2022-10-12T10:26:14.133Z,98196.34
2022-10-12T10:28:42.642Z,98202.41
2022-10-12T10:31:18.466Z,98197.19
2022-10-12T10:34:04.403Z,98191.09
2022-10-12T10:36:34.329Z,98187.97
2022-10-12T10:39:02.736Z,98186.16
2022-10-12T10:41:34.523Z,98180.25
2022-10-12T10:44:01.117Z,98183.53
2022-10-12T10:46:30.931Z,98181.84
2022-10-12T10:49:01.445Z,98184.19
2022-10-12T10:51:43.326Z,98184.53
2022-10-12T10:54:13.942Z,98177.63
2022-10-12T10:56:40.673Z,98181.75
2022-10-12T10:59:19.008Z,98173.19
2022-10-12T11:01:52.919Z,98172.38
2022-10-12T11:04:26.154Z,98175.31
2022-10-12T11:06:55.743Z,98178.44
2022-10-12T11:09:26.817Z,98173.84
2022-10-12T11:11:57.620Z,98171.56
2022-10-12T11:14:31.029Z,98167.44
2022-10-12T11:17:00.985Z,98165.09
2022-10-12T11:19:33.979Z,98159.72
2022-10-12T11:22:04.740Z,98157.91
2022-10-12T11:24:38.493Z,98162.50
2022-10-12T11:27:11.015Z,98159.22
2022-10-12T11:29:38.191Z,98158.56
2022-10-12T11:32:12.412Z,98158.91
2022-10-12T11:34:48.365Z,98155.75
2022-10-12T11:37:20.949Z,98151.66
2022-10-12T11:39:51.725Z,98153.63
2022-10-12T11:42:27.424Z,98148.88
2022-10-12T11:44:54.809Z,98144.28
2022-10-12T11:47:31.390Z,98141.97
2022-10-12T11:50:02.274Z,98144.63
2022-10-12T11:52:35.902Z,98149.06
2022-10-12T11:55:25.049Z,98145.44
2022-10-12T11:57:54.310Z,98147.75
2022-10-12T12:00:24.882Z,98135.91
2022-10-12T12:02:58.810Z,98135.09
2022-10-12T12:05:31.169Z,98135.75
2022-10-12T12:07:57.833Z,98134.44
2022-10-12T12:10:44.487Z,98141.66
2022-10-12T12:13:20.291Z,98131.28
2022-10-12T12:16:31.651Z,98132.13
2022-10-12T12:19:30.763Z,98132.78
2022-10-12T12:22:26.964Z,98128.97
2022-10-12T12:25:19.253Z,98124.34
2022-10-12T12:27:49.918Z,98122.81
2022-10-12T12:30:36.872Z,98118.66
2022-10-12T12:33:07.013Z,98110.94
2022-10-12T12:35:38.368Z,98102.00
2022-10-12T12:38:16.825Z,98103.41
2022-10-12T12:41:05.705Z,98105.66
2022-10-12T12:44:01.351Z,98110.47
2022-10-12T12:47:32.609Z,98107.00
2022-10-12T12:49:57.181Z,98106.25
2022-10-12T12:52:27.501Z,98108.19
2022-10-12T12:55:27.033Z,98101.06
2022-10-12T12:58:15.048Z,98100.38
2022-10-12T13:00:56.654Z,98097.88
2022-10-12T13:04:03.130Z,98090.50
2022-10-12T13:07:29.269Z,98103.41
2022-10-12T13:10:22.030Z,98095.81
2022-10-12T13:13:11.140Z,98087.53
2022-10-12T13:15:49.717Z,98089.81
2022-10-12T13:18:47.621Z,98090.97
2022-10-12T13:21:19.246Z,98086.06
2022-10-12T13:23:49.039Z,98085.78
2022-10-12T13:26:21.710Z,98079.03
2022-10-12T13:28:49.103Z,98077.41
2022-10-12T13:31:19.818Z,98082.09
2022-10-12T13:33:53.975Z,98087.38
2022-10-12T13:36:23.360Z,98088.22
2022-10-12T13:38:55.700Z,98084.25
2022-10-12T13:41:25.119Z,98093.97
2022-10-12T13:43:54.273Z,98089.81
2022-10-12T13:46:40.649Z,98081.94
2022-10-12T13:49:14.444Z,98079.44
2022-10-12T13:51:42.766Z,98080.78
2022-10-12T13:54:17.540Z,98083.41
2022-10-12T13:56:47.812Z,98075.06
2022-10-12T13:59:19.080Z,98081.16
2022-10-12T14:01:50.503Z,98078.00
2022-10-12T14:04:17.064Z,98066.19
2022-10-12T14:06:47.919Z,98072.81
2022-10-12T14:09:18.447Z,98063.78
2022-10-12T14:11:47.063Z,98061.28
2022-10-12T14:14:20.344Z,98062.78
2022-10-12T14:16:46.923Z,98065.78
2022-10-12T14:19:21.715Z,98063.59
2022-10-12T14:21:49.019Z,98060.34
2022-10-12T14:24:18.805Z,98060.16
2022-10-12T14:26:54.327Z,98056.41
2022-10-12T14:29:36.201Z,98054.97
2022-10-12T14:32:03.549Z,98064.66
2022-10-12T14:34:42.163Z,98070.03
2022-10-12T14:37:28.855Z,98061.19
2022-10-12T14:39:56.423Z,98058.56
2022-10-12T14:42:29.671Z,98059.25
2022-10-12T14:44:56.332Z,98050.72
2022-10-12T14:47:25.246Z,98047.75
2022-10-12T14:49:54.128Z,98044.47
2022-10-12T14:52:24.788Z,98040.19
2022-10-12T14:54:51.666Z,98033.81
2022-10-12T14:57:19.396Z,98049.06
2022-10-12T14:59:47.703Z,98049.06
2022-10-12T15:02:19.523Z,98045.63
2022-10-12T15:04:46.699Z,98043.66
2022-10-12T15:07:15.850Z,98046.78
2022-10-12T15:09:42.456Z,98050.41
2022-10-12T15:12:11.768Z,98045.31
2022-10-12T15:14:38.340Z,98048.41
2022-10-12T15:17:06.204Z,98047.75
2022-10-12T15:19:32.778Z,98040.53
2022-10-12T15:21:59.285Z,98045.47
2022-10-12T15:24:25.819Z,98047.09
2022-10-12T15:26:52.411Z,98045.13
2022-10-12T15:29:18.941Z,98042.34
2022-10-12T15:31:48.969Z,98042.03
2022-10-12T15:34:19.003Z,98042.69
2022-10-12T15:36:45.555Z,98039.91
2022-10-12T15:39:12.143Z,98048.56
2022-10-12T15:41:38.727Z,98032.59
2022-10-12T15:44:06.270Z,98040.16
2022-10-12T15:46:32.809Z,98040.78
2022-10-12T15:48:59.293Z,98036.50
2022-10-12T15:51:27.211Z,98043.13
2022-10-12T15:53:54.597Z,98046.22
2022-10-12T15:56:22.326Z,98043.66
2022-10-12T15:58:49.022Z,98037.69
2022-10-12T16:01:19.854Z,98036.63
2022-10-12T16:03:47.438Z,98037.50
2022-10-12T16:06:14.406Z,98028.09
2022-10-12T16:08:42.463Z,98045.66
2022-10-12T16:11:13.131Z,98035.19
2022-10-12T16:13:46.365Z,98034.31
2022-10-12T16:16:15.627Z,98037.50
2022-10-12T16:18:42.187Z,98037.25
2022-10-12T16:21:09.096Z,98036.97
2022-10-12T16:23:36.990Z,98037.09
2022-10-12T16:26:08.120Z,98037.72
2022-10-12T16:28:34.869Z,98034.94
2022-10-12T16:31:01.678Z,98046.78
2022-10-12T16:33:28.218Z,98038.38
2022-10-12T16:35:54.786Z,98043.50
2022-10-12T16:38:21.339Z,98053.19
2022-10-12T16:40:48.152Z,98056.69
2022-10-12T16:43:16.023Z,98049.06
2022-10-12T16:45:42.554Z,98050.91
2022-10-12T16:48:09.119Z,98055.16
2022-10-12T16:50:38.466Z,98058.03
2022-10-12T16:53:04.994Z,98060.28
2022-10-12T16:55:31.554Z,98057.06
2022-10-12T16:57:58.074Z,98063.34
2022-10-12T17:00:25.953Z,98061.91
2022-10-12T17:02:57.266Z,98060.47
2022-10-12T17:05:24.103Z,98065.19
2022-10-12T17:07:50.617Z,98062.41
2022-10-12T17:10:17.286Z,98057.78
2022-10-12T17:12:43.814Z,98066.28
2022-10-12T17:15:10.588Z,98059.06
2022-10-12T17:17:38.437Z,98058.25
2022-10-12T17:20:05.787Z,98062.97
2022-10-12T17:22:32.319Z,98067.44
2022-10-12T17:24:58.828Z,98072.63
2022-10-12T17:27:29.899Z,98074.59
2022-10-12T17:29:58.786Z,98073.44
2022-10-12T17:32:25.310Z,98078.47
2022-10-12T17:34:53.238Z,98080.41
2022-10-12T17:37:19.767Z,98082.38
2022-10-12T17:39:46.439Z,98077.97
2022-10-12T17:42:13.388Z,98074.88
2022-10-12T17:44:40.196Z,98079.59
2022-10-12T17:47:06.986Z,98073.31
2022-10-12T17:49:33.533Z,98082.03
2022-10-12T17:52:01.394Z,98081.09
2022-10-12T17:54:27.976Z,98089.13
2022-10-12T17:56:55.114Z,98091.84
2022-10-12T17:59:22.188Z,98089.56
2022-10-12T18:01:49.708Z,98085.16
2022-10-12T18:04:16.325Z,98089.28
2022-10-12T18:06:43.027Z,98084.19
2022-10-12T18:09:11.524Z,98078.69
2022-10-12T18:11:38.286Z,98081.41
2022-10-12T18:14:07.186Z,98075.16
2022-10-12T18:16:34.455Z,98076.88
2022-10-12T18:19:03.122Z,98080.69
2022-10-12T18:21:31.955Z,98083.13
2022-10-12T18:24:01.121Z,98085.34
2022-10-12T18:26:29.055Z,98083.81
2022-10-12T18:28:55.876Z,98080.88
2022-10-12T18:31:24.165Z,98078.53
2022-10-12T18:33:51.180Z,98084.66
2022-10-12T18:36:19.246Z,98091.59
2022-10-12T18:38:46.266Z,98095.19
2022-10-12T18:41:16.165Z,98096.41
2022-10-12T18:43:44.403Z,98095.06
2022-10-12T18:46:13.291Z,98102.25
2022-10-12T18:48:40.683Z,98103.38
2022-10-12T18:51:09.311Z,98097.09
2022-10-12T18:53:35.863Z,98099.25
2022-10-12T18:56:03.374Z,98099.69
2022-10-12T18:58:30.126Z,98095.13
2022-10-12T19:00:58.313Z,98098.47
2022-10-12T19:03:26.197Z,98101.75
2022-10-12T19:06:01.816Z,98100.38
2022-10-12T19:08:28.450Z,98106.19
2022-10-12T19:10:54.960Z,98108.16
2022-10-12T19:13:21.505Z,98107.06
2022-10-12T19:15:48.025Z,98101.97
2022-10-12T19:18:15.908Z,98106.13
2022-10-12T19:20:42.438Z,98103.69
2022-10-12T19:23:08.985Z,98106.44
2022-10-12T19:25:37.112Z,98104.81
2022-10-12T19:28:03.729Z,98110.38
2022-10-12T19:30:30.288Z,98107.34
2022-10-12T19:32:56.846Z,98114.25
2022-10-12T19:35:24.710Z,98113.94
2022-10-12T19:37:51.302Z,98113.69
2022-10-12T19:40:18.932Z,98115.84
2022-10-12T19:42:47.066Z,98108.91
2022-10-12T19:45:13.614Z,98106.69
2022-10-12T19:47:40.188Z,98111.94
2022-10-12T19:50:06.949Z,98114.31
2022-10-12T19:52:34.825Z,98115.97
2022-10-12T19:55:01.330Z,98117.84
2022-10-12T19:57:27.879Z,98119.50
2022-10-12T19:59:54.400Z,98116.50
2022-10-12T20:02:21.262Z,98121.94
2022-10-12T20:04:47.956Z,98117.25
2022-10-12T20:07:14.490Z,98120.25
2022-10-12T20:09:42.373Z,98126.78
2022-10-12T20:12:08.935Z,98121.16
2022-10-12T20:14:35.471Z,98123.88
2022-10-12T20:17:02.004Z,98124.94
2022-10-12T20:19:28.737Z,98130.19
2022-10-12T20:21:55.309Z,98123.75
2022-10-12T20:24:21.876Z,98127.06
2022-10-12T20:26:49.767Z,98121.56
2022-10-12T20:29:16.310Z,98121.56
2022-10-12T20:31:42.874Z,98124.28
2022-10-12T20:34:09.429Z,98132.00
2022-10-12T20:36:36.143Z,98132.22
2022-10-12T20:39:03.405Z,98124.47
2022-10-12T20:41:29.963Z,98124.69
2022-10-12T20:43:59.921Z,98116.16
2022-10-12T20:46:27.845Z,98126.19
2022-10-12T20:48:58.600Z,98121.69
2022-10-12T20:51:27.811Z,98123.75
2022-10-12T20:53:54.951Z,98126.88
2022-10-12T20:56:21.527Z,98126.66
2022-10-12T20:58:48.085Z,98126.69
2022-10-12T21:01:17.184Z,98126.38
2022-10-12T21:03:43.935Z,98116.72
2022-10-12T21:06:13.214Z,98114.81
2022-10-12T21:08:40.230Z,98112.63
2022-10-12T21:11:07.581Z,98109.63
2022-10-12T21:13:35.678Z,98107.03
2022-10-12T21:16:02.228Z,98099.31
2022-10-12T21:18:34.058Z,98110.44
2022-10-12T21:21:06.152Z,98109.38
2022-10-12T21:23:32.703Z,98110.47
2022-10-12T21:25:59.271Z,98114.34
2022-10-12T21:28:25.821Z,98110.47
2022-10-12T21:30:52.403Z,98107.19
2022-10-12T21:33:18.926Z,98112.75
2022-10-12T21:35:46.852Z,98095.03
2022-10-12T21:38:13.385Z,98094.56
2022-10-12T21:40:39.943Z,98098.47
2022-10-12T21:43:06.508Z,98109.78
2022-10-12T21:45:33.212Z,98107.56
2022-10-12T21:47:59.771Z,98104.88
2022-10-12T21:50:26.813Z,98106.00
2022-10-12T21:53:00.065Z,98099.72
2022-10-12T21:55:27.033Z,98095.25
2022-10-12T21:57:53.568Z,98095.22
2022-10-12T22:00:20.187Z,98096.28
2022-10-12T22:02:46.703Z,98106.25
2022-10-12T22:05:13.413Z,98102.41
2022-10-12T22:07:41.642Z,98108.59
2022-10-12T22:10:10.756Z,98113.50
2022-10-12T22:12:38.075Z,98112.16
2022-10-12T22:15:05.476Z,98107.44
2022-10-12T22:17:32.006Z,98110.19
2022-10-12T22:19:58.537Z,98106.66
2022-10-12T22:22:25.080Z,98103.78
2022-10-12T22:24:51.602Z,98096.88
2022-10-12T22:27:19.558Z,98101.06
2022-10-12T22:29:46.142Z,98101.38
2022-10-12T22:32:12.706Z,98098.91
2022-10-12T22:34:39.244Z,98084.88
2022-10-12T22:37:05.764Z,98085.16
2022-10-12T22:39:32.295Z,98083.25
2022-10-12T22:41:58.827Z,98077.75
2022-10-12T22:44:26.717Z,98080.53
2022-10-12T22:46:53.263Z,98077.53
2022-10-12T22:49:19.973Z,98072.91
2022-10-12T22:51:46.471Z,98082.00
2022-10-12T22:54:13.019Z,98075.94
2022-10-12T22:56:39.965Z,98073.22
2022-10-12T22:59:06.950Z,98071.28
2022-10-12T23:01:35.871Z,98063.03
2022-10-12T23:04:02.541Z,98067.16
2022-10-12T23:06:29.075Z,98071.84
2022-10-12T23:08:55.653Z,98070.16
2022-10-12T23:11:24.639Z,98068.53
2022-10-12T23:13:51.715Z,98069.38
2022-10-12T23:16:20.420Z,98076.00
2022-10-12T23:18:56.660Z,98077.34
2022-10-12T23:21:26.004Z,98075.44
2022-10-12T23:23:52.587Z,98079.56
2022-10-12T23:26:21.111Z,98082.88
2022-10-12T23:28:48.945Z,98082.31
2022-10-12T23:31:17.337Z,98077.88
2022-10-12T23:33:44.139Z,98080.63
2022-10-12T23:36:14.184Z,98085.81
2022-10-12T23:38:42.007Z,98080.84
2022-10-12T23:41:09.496Z,98078.88
2022-10-12T23:43:36.231Z,98077.22
2022-10-12T23:46:03.507Z,98078.84
2022-10-12T23:48:30.045Z,98074.13
2022-10-12T23:50:56.745Z,98075.50
2022-10-12T23:53:25.334Z,98075.75
2022-10-12T23:55:52.465Z,98083.16
2022-10-12T23:58:19.524Z,98075.19
